Time;durP1;ratioP1;P1;durP2;ratioP2;P2;SDS_P1;SDS_P2;PMS_P1;PMS_P2;Temp;Humidity;BMP_temperature;BMP_pressure;BME280_temperature;BME280_humidity;BME280_pressure;Samples;Min_cycle;Max_cycle;Signal;HPM_P1;HPM_P2
2022/03/08 00:01:56;;;;;;;22.73;14.48;;;-3.00;99.90;;;;;;5034189;28;20464;-73
2022/03/08 00:04:28;;;;;;;24.80;15.40;;;-2.90;99.90;;;;;;5048355;28;20053;-72
2022/03/08 00:07:00;;;;;;;29.77;14.77;;;-2.90;99.90;;;;;;5034101;28;20567;-73
2022/03/08 00:09:28;;;;;;;26.38;14.52;;;-2.90;99.90;;;;;;5033850;28;20147;-73
2022/03/08 00:11:59;;;;;;;25.77;14.95;;;-2.90;99.90;;;;;;5032748;28;20041;-73
2022/03/08 00:14:33;;;;;;;24.55;14.20;;;-2.90;99.90;;;;;;5048209;28;20044;-73
2022/03/08 00:17:04;;;;;;;21.58;14.15;;;-2.90;99.90;;;;;;5032623;28;20041;-73
2022/03/08 00:19:36;;;;;;;22.85;13.77;;;-2.90;99.90;;;;;;5048318;28;20051;-73
2022/03/08 00:22:08;;;;;;;22.52;13.18;;;-2.90;99.90;;;;;;5015939;28;20131;-72
2022/03/08 00:24:35;;;;;;;23.98;14.52;;;-3.00;99.90;;;;;;5031924;28;20534;-73
2022/03/08 00:27:06;;;;;;;23.67;13.93;;;-3.00;99.90;;;;;;5015725;28;20045;-73
2022/03/08 00:29:38;;;;;;;25.95;15.15;;;-3.00;99.90;;;;;;5032649;28;20045;-72
2022/03/08 00:32:10;;;;;;;25.42;14.23;;;-3.00;99.90;;;;;;5032866;28;20047;-72
2022/03/08 00:34:38;;;;;;;24.73;14.60;;;-3.00;99.90;;;;;;5032301;28;20095;-73
2022/03/08 00:37:10;;;;;;;23.93;14.07;;;-3.00;99.90;;;;;;5031882;28;20465;-73
2022/03/08 00:39:42;;;;;;;23.95;14.43;;;-3.10;99.90;;;;;;5032735;28;20515;-73
2022/03/08 00:42:11;;;;;;;25.17;14.10;;;-3.10;99.90;;;;;;5032286;28;20592;-73
2022/03/08 00:44:39;;;;;;;27.80;16.52;;;-3.10;99.90;;;;;;5033311;28;20123;-73
2022/03/08 00:47:07;;;;;;;23.08;14.38;;;-3.10;99.90;;;;;;5033774;28;20046;-73
2022/03/08 00:49:34;;;;;;;26.98;16.13;;;-3.10;99.90;;;;;;5015986;28;20053;-73
2022/03/08 00:52:01;;;;;;;26.23;15.93;;;-3.20;99.90;;;;;;5049004;28;20478;-73
2022/03/08 00:54:33;;;;;;;25.02;14.70;;;-3.20;99.90;;;;;;5031928;28;20484;-73
2022/03/08 00:57:00;;;;;;;24.80;14.88;;;-3.20;99.90;;;;;;5031813;28;20187;-73
2022/03/08 00:59:32;;;;;;;24.13;14.65;;;-3.20;99.90;;;;;;5032434;28;20051;-73
2022/03/08 01:02:04;;;;;;;25.35;14.43;;;-3.30;99.90;;;;;;5048072;28;20080;-73
2022/03/08 01:04:31;;;;;;;23.25;13.50;;;-3.20;99.90;;;;;;5048149;28;20046;-73
2022/03/08 01:07:06;;;;;;;25.65;14.70;;;-3.20;99.90;;;;;;5015731;28;20041;-73
2022/03/08 01:09:33;;;;;;;24.13;14.40;;;-3.30;99.90;;;;;;5032147;28;20107;-73
2022/03/08 01:12:00;;;;;;;21.92;13.70;;;-3.30;99.90;;;;;;5031370;28;20447;-73
2022/03/08 01:14:27;;;;;;;23.83;14.15;;;-3.30;99.90;;;;;;5048109;28;20077;-73
2022/03/08 01:17:03;;;;;;;22.60;13.85;;;-3.30;99.90;;;;;;5031971;28;20042;-73
2022/03/08 01:19:35;;;;;;;25.10;15.57;;;-3.30;99.90;;;;;;5047798;28;20053;-73
2022/03/08 01:22:07;;;;;;;24.30;14.57;;;-3.30;99.90;;;;;;5031971;28;20033;-73
2022/03/08 01:24:34;;;;;;;23.98;14.50;;;-3.30;99.90;;;;;;5031347;28;20045;-73
2022/03/08 01:27:06;;;;;;;22.83;13.13;;;-3.30;99.90;;;;;;5047504;28;20108;-73
2022/03/08 01:29:37;;;;;;;23.92;13.85;;;-3.30;99.90;;;;;;5031674;28;20044;-73
2022/03/08 01:32:05;;;;;;;22.25;13.82;;;-3.30;99.90;;;;;;5048284;28;20455;-73
2022/03/08 01:34:34;;;;;;;20.17;12.75;;;-3.30;99.90;;;;;;5031083;28;20504;-73
2022/03/08 01:37:02;;;;;;;21.83;13.75;;;-3.30;99.90;;;;;;5048191;28;20041;-73
2022/03/08 01:39:34;;;;;;;22.08;13.90;;;-3.30;99.90;;;;;;5015107;28;20504;-73
2022/03/08 01:42:11;;;;;;;22.08;12.50;;;-3.30;99.90;;;;;;5031295;28;20083;-73
2022/03/08 01:44:44;;;;;;;22.40;12.55;;;-3.30;99.90;;;;;;5031298;28;20046;-73
2022/03/08 01:47:22;;;;;;;24.35;13.48;;;-3.30;99.90;;;;;;5047314;28;20065;-73
2022/03/08 01:49:50;;;;;;;20.07;12.10;;;-3.30;99.90;;;;;;5031366;28;20084;-73
2022/03/08 01:52:24;;;;;;;15.30;9.80;;;-3.30;99.90;;;;;;5030144;28;20821;-73
2022/03/08 01:54:52;;;;;;;19.98;12.50;;;-3.30;99.90;;;;;;5047693;28;20056;-73
2022/03/08 01:57:19;;;;;;;23.90;13.25;;;-3.30;99.90;;;;;;5031192;28;20065;-73
2022/03/08 01:59:52;;;;;;;21.37;12.10;;;-3.30;99.90;;;;;;5030925;28;20492;-73
2022/03/08 02:02:20;;;;;;;23.20;13.50;;;-3.30;99.90;;;;;;5031625;28;20049;-72
2022/03/08 02:04:48;;;;;;;21.33;12.80;;;-3.30;99.90;;;;;;5031449;28;20418;-73
2022/03/08 02:07:15;;;;;;;24.30;13.23;;;-3.30;99.90;;;;;;5030472;28;20076;-73
2022/03/08 02:09:41;;;;;;;19.95;12.25;;;-3.30;99.90;;;;;;5031015;28;20124;-73
2022/03/08 02:12:13;;;;;;;22.25;12.32;;;-3.30;99.90;;;;;;5030518;28;20455;-72
2022/03/08 02:14:45;;;;;;;20.08;12.60;;;-3.40;99.90;;;;;;5030103;28;20057;-73
2022/03/08 02:17:17;;;;;;;18.67;12.20;;;-3.40;99.90;;;;;;5030407;28;20049;-73
2022/03/08 02:19:49;;;;;;;20.05;12.40;;;-3.40;99.90;;;;;;4998149;28;20049;-73
2022/03/08 02:22:21;;;;;;;21.23;11.75;;;-3.40;99.90;;;;;;5045905;28;20501;-72
2022/03/08 02:24:52;;;;;;;19.23;12.50;;;-3.40;99.90;;;;;;5030031;28;20041;-73
2022/03/08 02:27:24;;;;;;;20.75;12.40;;;-3.40;99.90;;;;;;5045845;28;20431;-73
2022/03/08 02:29:57;;;;;;;19.40;11.88;;;-3.40;99.90;;;;;;5029881;28;20136;-73
2022/03/08 02:32:29;;;;;;;18.52;11.63;;;-3.50;99.90;;;;;;5030836;28;20041;-73
2022/03/08 02:35:04;;;;;;;23.10;12.93;;;-3.50;99.90;;;;;;5031187;28;20120;-73
2022/03/08 02:37:47;;;;;;;19.33;11.55;;;-3.50;99.90;;;;;;5029971;28;20069;-73
2022/03/08 02:40:25;;;;;;;19.67;12.23;;;-3.50;99.90;;;;;;5029721;28;20136;-73
2022/03/08 02:42:57;;;;;;;19.63;11.05;;;-3.50;99.90;;;;;;5029321;28;20080;-72
2022/03/08 02:45:24;;;;;;;19.92;12.27;;;-3.50;99.90;;;;;;5029715;28;20046;-73
2022/03/08 02:47:52;;;;;;;19.67;12.07;;;-3.50;99.90;;;;;;5031020;28;20095;-73
2022/03/08 02:50:24;;;;;;;17.15;10.75;;;-3.50;99.90;;;;;;5029798;28;20068;-73
2022/03/08 02:52:53;;;;;;;18.10;11.02;;;-3.50;99.90;;;;;;5029204;28;20152;-73
2022/03/08 02:55:22;;;;;;;20.63;11.30;;;-3.50;99.90;;;;;;5030808;28;20125;-73
2022/03/08 02:57:50;;;;;;;17.23;10.57;;;-3.50;99.90;;;;;;5029570;28;20076;-73
2022/03/08 03:00:19;;;;;;;21.08;11.38;;;-3.50;99.90;;;;;;5046020;28;20073;-73
2022/03/08 03:02:46;;;;;;;19.08;10.52;;;-3.50;99.90;;;;;;5045608;28;20492;-73
2022/03/08 03:05:18;;;;;;;17.02;10.73;;;-3.50;99.90;;;;;;5012876;28;20111;-73
2022/03/08 03:07:50;;;;;;;20.02;11.00;;;-3.50;99.90;;;;;;5012961;28;20511;-73
2022/03/08 03:10:20;;;;;;;19.13;12.52;;;-3.50;99.90;;;;;;5029364;28;20065;-73
2022/03/08 03:12:48;;;;;;;17.50;10.63;;;-3.50;99.90;;;;;;5012612;28;20072;-73
2022/03/08 03:15:20;;;;;;;16.52;10.63;;;-3.50;99.90;;;;;;5029406;28;20045;-73
2022/03/08 03:17:53;;;;;;;17.37;9.40;;;-3.50;99.90;;;;;;5029465;28;20080;-72
2022/03/08 03:20:21;;;;;;;19.05;11.68;;;-3.60;99.90;;;;;;5045847;28;20049;-73
2022/03/08 03:22:50;;;;;;;18.15;11.15;;;-3.50;99.90;;;;;;5029999;28;20042;-73
2022/03/08 03:25:22;;;;;;;17.23;10.65;;;-3.60;99.90;;;;;;5029165;28;20041;-73
2022/03/08 03:27:53;;;;;;;22.00;11.68;;;-3.60;99.90;;;;;;5029178;28;20149;-73
2022/03/08 03:30:20;;;;;;;17.58;10.90;;;-3.60;99.90;;;;;;5029071;28;20497;-72
2022/03/08 03:32:47;;;;;;;20.73;11.95;;;-3.60;99.90;;;;;;5028879;28;20197;-73
2022/03/08 03:35:19;;;;;;;16.27;11.15;;;-3.60;99.90;;;;;;5012712;28;20061;-75
2022/03/08 03:37:46;;;;;;;16.83;10.98;;;-3.70;99.90;;;;;;5045663;28;20409;-73
2022/03/08 03:40:13;;;;;;;17.45;10.85;;;-3.70;99.90;;;;;;5028979;28;20080;-72
2022/03/08 03:42:45;;;;;;;17.73;11.10;;;-3.70;99.90;;;;;;5028727;28;20061;-73
2022/03/08 03:45:12;;;;;;;18.73;10.93;;;-3.70;99.90;;;;;;5045514;28;20152;-73
2022/03/08 03:47:40;;;;;;;21.08;11.98;;;-3.70;99.90;;;;;;5045600;28;20045;-73
2022/03/08 03:50:08;;;;;;;23.88;13.00;;;-3.80;99.90;;;;;;5030276;28;20068;-73
2022/03/08 03:52:40;;;;;;;16.73;10.10;;;-3.80;99.90;;;;;;5012129;28;20136;-73
2022/03/08 03:55:07;;;;;;;18.65;11.93;;;-3.80;99.90;;;;;;5030263;28;20037;-73
2022/03/08 03:57:34;;;;;;;19.88;11.88;;;-3.80;99.90;;;;;;5028937;28;20159;-73
2022/03/08 04:00:08;;;;;;;23.08;13.90;;;-3.80;99.90;;;;;;5028966;28;20069;-73
2022/03/08 04:02:41;;;;;;;23.73;14.05;;;-3.80;99.90;;;;;;5044211;28;20156;-72
2022/03/08 04:05:13;;;;;;;23.80;13.73;;;-3.80;99.90;;;;;;4996897;28;20128;-73
2022/03/08 04:07:40;;;;;;;23.63;14.38;;;-3.80;99.90;;;;;;5045296;28;20042;-73
2022/03/08 04:10:15;;;;;;;22.95;14.02;;;-3.80;99.90;;;;;;5028967;28;20558;-73
2022/03/08 04:12:47;;;;;;;21.88;12.73;;;-3.80;99.90;;;;;;5029671;28;20052;-73
2022/03/08 04:15:13;;;;;;;22.52;13.32;;;-3.80;99.90;;;;;;5030111;28;20128;-73
2022/03/08 04:17:40;;;;;;;23.65;12.80;;;-3.80;99.90;;;;;;5029293;28;20140;-73
2022/03/08 04:20:12;;;;;;;22.15;12.57;;;-3.80;99.90;;;;;;5029374;28;20140;-73
2022/03/08 04:22:39;;;;;;;19.45;12.65;;;-3.80;99.90;;;;;;5029870;28;20088;-73
2022/03/08 04:25:07;;;;;;;21.30;12.00;;;-3.80;99.90;;;;;;5045853;28;20505;-73
2022/03/08 04:27:33;;;;;;;20.45;11.68;;;-3.80;99.90;;;;;;5012791;28;20080;-73
2022/03/08 04:30:08;;;;;;;19.48;11.68;;;-3.80;99.90;;;;;;5029318;28;20136;-73
2022/03/08 04:32:40;;;;;;;22.80;12.23;;;-3.70;99.90;;;;;;5013945;28;20060;-73
2022/03/08 04:35:12;;;;;;;18.20;11.75;;;-3.70;99.90;;;;;;5033656;28;20095;-73
2022/03/08 04:37:44;;;;;;;21.60;12.80;;;-3.70;99.90;;;;;;5042019;28;20411;-73
2022/03/08 04:40:12;;;;;;;20.35;12.90;;;-3.80;99.90;;;;;;5036222;28;20129;-73
2022/03/08 04:42:40;;;;;;;22.90;12.15;;;-3.70;99.90;;;;;;5052009;28;20045;-73
2022/03/08 04:45:12;;;;;;;18.10;12.40;;;-3.80;99.90;;;;;;5053850;28;20040;-73
2022/03/08 04:47:39;;;;;;;22.55;13.07;;;-3.80;99.90;;;;;;5035896;28;20467;-73
2022/03/08 04:50:08;;;;;;;24.88;13.15;;;-3.80;99.90;;;;;;5035552;28;20084;-73
2022/03/08 04:52:41;;;;;;;25.50;15.00;;;-3.90;99.90;;;;;;5051358;28;20574;-73
2022/03/08 04:55:08;;;;;;;25.17;14.80;;;-3.90;99.90;;;;;;5044910;28;20037;-73
2022/03/08 04:57:40;;;;;;;26.35;14.90;;;-4.00;99.90;;;;;;5029228;28;20597;-73
2022/03/08 05:00:14;;;;;;;22.47;11.20;;;-4.00;99.90;;;;;;5036603;28;20500;-73
2022/03/08 05:02:46;;;;;;;23.23;14.55;;;-4.10;99.90;;;;;;5040777;28;20041;-72
2022/03/08 05:05:18;;;;;;;23.58;14.75;;;-4.10;99.90;;;;;;5052750;28;20123;-73
2022/03/08 05:07:50;;;;;;;29.60;15.45;;;-4.20;99.90;;;;;;5052823;28;20514;-73
2022/03/08 05:10:17;;;;;;;28.95;16.27;;;-4.20;99.90;;;;;;5034847;28;20144;-73
2022/03/08 05:12:49;;;;;;;29.17;15.75;;;-4.20;99.90;;;;;;5054615;28;20041;-72
2022/03/08 05:15:15;;;;;;;26.50;14.80;;;-4.20;99.90;;;;;;5035209;28;20041;-72
2022/03/08 05:17:42;;;;;;;26.27;13.93;;;-4.20;99.90;;;;;;5045895;28;20106;-73
2022/03/08 05:20:14;;;;;;;23.20;13.90;;;-4.20;99.90;;;;;;5038710;28;20055;-73
2022/03/08 05:22:46;;;;;;;19.38;12.18;;;-4.20;99.90;;;;;;5020063;28;20045;-73
2022/03/08 05:25:17;;;;;;;21.85;12.52;;;-4.20;99.90;;;;;;5018881;28;20049;-72
2022/03/08 05:27:44;;;;;;;20.48;12.13;;;-4.20;99.90;;;;;;5049241;28;20037;-72
2022/03/08 05:30:16;;;;;;;27.85;13.98;;;-4.20;99.90;;;;;;5041308;28;20033;-72
2022/03/08 05:32:43;;;;;;;26.95;14.75;;;-4.10;99.90;;;;;;5033948;28;20124;-72
2022/03/08 05:35:15;;;;;;;27.10;14.73;;;-4.10;99.90;;;;;;5041284;28;20040;-72
2022/03/08 05:37:42;;;;;;;27.35;13.95;;;-4.10;99.90;;;;;;5051485;28;20116;-72
2022/03/08 05:40:09;;;;;;;26.40;15.38;;;-4.10;99.90;;;;;;5050745;28;20075;-71
2022/03/08 05:42:38;;;;;;;26.25;14.38;;;-4.10;99.90;;;;;;5062814;28;20543;-73
2022/03/08 05:45:09;;;;;;;28.17;14.98;;;-4.20;99.90;;;;;;5050966;28;20049;-72
2022/03/08 05:47:42;;;;;;;26.20;14.65;;;-4.20;99.90;;;;;;5034715;28;20152;-72
2022/03/08 05:50:10;;;;;;;29.75;15.98;;;-4.20;99.90;;;;;;5035892;28;20842;-73
2022/03/08 05:52:42;;;;;;;30.95;15.70;;;-4.20;99.90;;;;;;5047505;28;20032;-73
2022/03/08 05:55:14;;;;;;;30.52;15.05;;;-4.10;99.90;;;;;;5006401;28;20146;-73
2022/03/08 05:57:46;;;;;;;30.73;16.52;;;-4.20;99.90;;;;;;5015557;28;20588;-72
2022/03/08 06:00:13;;;;;;;29.95;15.60;;;-4.20;99.90;;;;;;5033814;28;20045;-73
2022/03/08 06:02:41;;;;;;;33.10;16.35;;;-4.20;99.90;;;;;;5030216;28;20700;-73
2022/03/08 06:05:13;;;;;;;24.13;13.45;;;-4.30;99.90;;;;;;5053208;28;20041;-72
2022/03/08 06:07:45;;;;;;;28.75;15.30;;;-4.30;99.90;;;;;;5051208;28;20538;-73
2022/03/08 06:10:11;;;;;;;31.25;16.00;;;-4.30;99.90;;;;;;5033518;28;20415;-73
2022/03/08 06:12:44;;;;;;;34.63;17.55;;;-4.30;99.90;;;;;;5012696;28;20095;-72
2022/03/08 06:15:11;;;;;;;25.90;13.73;;;-4.30;99.90;;;;;;5032426;28;20068;-73
2022/03/08 06:17:43;;;;;;;24.08;14.10;;;-4.30;99.90;;;;;;5051252;28;20098;-73
2022/03/08 06:20:10;;;;;;;25.65;12.98;;;-4.30;99.90;;;;;;5049851;28;20119;-73
2022/03/08 06:22:37;;;;;;;21.75;12.20;;;-4.30;99.90;;;;;;5050080;28;20068;-73
2022/03/08 06:25:09;;;;;;;30.70;13.95;;;-4.30;99.90;;;;;;5050873;28;20566;-72
2022/03/08 06:27:42;;;;;;;25.98;12.85;;;-4.30;99.90;;;;;;5032820;28;20787;-73
2022/03/08 06:30:14;;;;;;;22.33;12.85;;;-4.20;99.90;;;;;;5032469;28;20619;-73
2022/03/08 06:32:46;;;;;;;25.67;13.40;;;-4.20;99.90;;;;;;5050044;28;20060;-72
2022/03/08 06:35:13;;;;;;;29.75;13.70;;;-4.20;99.90;;;;;;5032107;28;20045;-72
2022/03/08 06:37:45;;;;;;;35.88;15.55;;;-4.30;99.90;;;;;;5032578;28;20061;-72
2022/03/08 06:40:17;;;;;;;29.58;15.55;;;-4.40;99.90;;;;;;5050733;28;20087;-72
2022/03/08 06:42:44;;;;;;;27.30;14.52;;;-4.40;99.90;;;;;;5032565;28;20095;-73
2022/03/08 06:45:16;;;;;;;32.38;14.80;;;-4.40;99.90;;;;;;5033329;28;20458;-73
2022/03/08 06:47:48;;;;;;;26.80;15.48;;;-4.40;99.90;;;;;;5038689;28;20075;-72
2022/03/08 06:50:20;;;;;;;27.58;14.70;;;-4.40;99.90;;;;;;5043567;28;20044;-73
2022/03/08 06:52:52;;;;;;;21.02;13.10;;;-4.40;99.90;;;;;;5050258;28;20081;-72
2022/03/08 06:55:24;;;;;;;21.73;12.15;;;-4.30;99.90;;;;;;5050089;28;20065;-73
2022/03/08 06:57:50;;;;;;;22.75;12.70;;;-4.20;99.90;;;;;;5016429;28;20061;-72
2022/03/08 07:00:22;;;;;;;24.17;12.63;;;-4.10;99.90;;;;;;5041381;28;20127;-73
2022/03/08 07:02:54;;;;;;;21.33;13.00;;;-3.90;99.90;;;;;;5034193;28;20103;-72
2022/03/08 07:05:21;;;;;;;23.10;12.60;;;-3.80;99.90;;;;;;5048534;28;20137;-72
2022/03/08 07:07:52;;;;;;;25.02;13.38;;;-3.70;99.90;;;;;;5032707;28;20045;-73
2022/03/08 07:10:24;;;;;;;20.85;12.73;;;-3.60;99.90;;;;;;5032842;28;20123;-73
2022/03/08 07:12:56;;;;;;;21.35;13.07;;;-3.50;99.90;;;;;;5035408;28;20072;-73
2022/03/08 07:15:23;;;;;;;21.10;12.90;;;-3.50;99.90;;;;;;5032297;28;20153;-72
2022/03/08 07:17:55;;;;;;;24.73;12.70;;;-3.40;99.90;;;;;;5051263;28;20140;-72
2022/03/08 07:20:27;;;;;;;18.08;12.23;;;-3.30;99.90;;;;;;5048750;28;20499;-73
2022/03/08 07:22:54;;;;;;;18.80;11.63;;;-3.20;99.90;;;;;;5032282;28;20080;-72
2022/03/08 07:25:21;;;;;;;19.88;12.07;;;-3.10;99.90;;;;;;5038385;28;20119;-72
2022/03/08 07:27:49;;;;;;;22.13;13.52;;;-3.00;99.90;;;;;;5009143;28;20054;-72
2022/03/08 07:30:21;;;;;;;19.70;12.52;;;-3.00;99.90;;;;;;5031995;28;20045;-72
2022/03/08 07:32:52;;;;;;;21.65;12.30;;;-2.90;99.90;;;;;;5040890;28;20045;-72
2022/03/08 07:35:25;;;;;;;21.95;13.13;;;-2.90;99.90;;;;;;5031522;28;20120;-72
2022/03/08 07:37:57;;;;;;;21.63;12.27;;;-2.90;99.90;;;;;;5033042;28;20082;-73
2022/03/08 07:40:28;;;;;;;22.50;12.50;;;-2.80;99.90;;;;;;5001626;28;20361;-72
2022/03/08 07:42:55;;;;;;;19.50;12.30;;;-2.80;99.90;;;;;;5046459;28;20127;-72
2022/03/08 07:45:27;;;;;;;23.30;12.70;;;-2.80;99.90;;;;;;5045095;28;20044;-72
2022/03/08 07:47:59;;;;;;;20.00;11.75;;;-2.70;99.90;;;;;;5074641;28;20052;-72
2022/03/08 07:50:27;;;;;;;21.92;12.30;;;-2.70;99.90;;;;;;5016458;28;20049;-72
2022/03/08 07:52:59;;;;;;;19.58;12.00;;;-2.60;99.90;;;;;;5012881;28;20038;-72
2022/03/08 07:55:31;;;;;;;19.85;12.05;;;-2.60;99.90;;;;;;5045993;28;20033;-72
2022/03/08 07:57:59;;;;;;;18.95;12.82;;;-2.60;99.90;;;;;;5032080;28;20132;-72
2022/03/08 08:00:32;;;;;;;24.17;12.07;;;-2.50;99.90;;;;;;5018255;28;20140;-72
2022/03/08 08:02:59;;;;;;;20.73;13.43;;;-2.50;99.90;;;;;;5050770;28;20052;-72
2022/03/08 08:05:33;;;;;;;20.73;12.02;;;-2.40;99.90;;;;;;5014211;28;20179;-72
2022/03/08 08:08:06;;;;;;;19.48;11.90;;;-2.30;99.90;;;;;;5052287;28;20084;-72
2022/03/08 08:10:38;;;;;;;18.17;11.98;;;-2.20;99.90;;;;;;5053818;28;20037;-72
2022/03/08 08:13:10;;;;;;;24.80;12.40;;;-2.20;99.90;;;;;;5034785;28;20040;-72
2022/03/08 08:15:39;;;;;;;23.25;12.32;;;-2.10;99.90;;;;;;5035268;28;20116;-72
2022/03/08 08:18:05;;;;;;;24.33;14.30;;;-2.00;99.90;;;;;;5040903;28;20554;-72
2022/03/08 08:20:37;;;;;;;23.40;13.25;;;-1.90;99.90;;;;;;5034711;28;20044;-73
2022/03/08 08:23:04;;;;;;;23.67;13.82;;;-1.80;99.90;;;;;;5051186;28;20121;-72
2022/03/08 08:25:36;;;;;;;24.00;13.20;;;-1.70;99.90;;;;;;5035619;28;20136;-72
2022/03/08 08:28:08;;;;;;;22.33;13.40;;;-1.70;99.90;;;;;;5029155;28;20042;-72
2022/03/08 08:30:39;;;;;;;25.88;15.15;;;-1.60;99.90;;;;;;5036110;28;20059;-72
2022/03/08 08:33:12;;;;;;;36.03;17.65;;;-1.50;99.90;;;;;;5052993;28;20139;-72
2022/03/08 08:35:44;;;;;;;203.38;83.05;;;-1.40;99.90;;;;;;5052386;28;20127;-72
2022/03/08 08:38:11;;;;;;;66.45;31.30;;;-1.30;99.90;;;;;;5053843;28;20155;-72
2022/03/08 08:40:38;;;;;;;21.35;13.43;;;-1.20;99.90;;;;;;5052181;28;20570;-73
2022/03/08 08:43:10;;;;;;;23.48;13.50;;;-1.00;99.90;;;;;;5051222;28;20067;-72
2022/03/08 08:45:42;;;;;;;22.52;13.27;;;-0.90;99.90;;;;;;5014157;28;20052;-72
2022/03/08 08:48:13;;;;;;;28.95;15.60;;;-0.80;99.90;;;;;;5032049;28;20076;-73
2022/03/08 08:50:40;;;;;;;25.90;15.23;;;-0.60;99.90;;;;;;5052127;28;20084;-72
2022/03/08 08:53:12;;;;;;;23.35;15.00;;;-0.50;99.90;;;;;;5066803;28;20068;-72
2022/03/08 08:55:39;;;;;;;23.05;12.88;;;-0.40;99.90;;;;;;5047696;28;20108;-72
2022/03/08 08:58:10;;;;;;;33.42;19.80;;;-0.30;99.90;;;;;;5019761;28;20045;-72
2022/03/08 09:00:42;;;;;;;17.75;11.73;;;-0.10;99.90;;;;;;5038699;28;20037;-72
2022/03/08 09:03:16;;;;;;;27.13;15.55;;;0.10;99.90;;;;;;5039305;28;20136;-72
2022/03/08 09:05:46;;;;;;;16.00;10.10;;;0.30;99.90;;;;;;5050863;28;20131;-73
2022/03/08 09:08:23;;;;;;;14.80;9.93;;;0.40;99.90;;;;;;5036761;28;20045;-72
2022/03/08 09:10:52;;;;;;;14.98;9.77;;;0.60;99.90;;;;;;5032631;28;20127;-73
2022/03/08 09:13:24;;;;;;;14.13;9.45;;;0.70;99.90;;;;;;5014978;28;20416;-72
2022/03/08 09:15:56;;;;;;;14.35;9.20;;;0.90;99.90;;;;;;5014861;28;20112;-72
2022/03/08 09:18:28;;;;;;;13.50;7.90;;;1.00;99.90;;;;;;5039947;28;20048;-72
2022/03/08 09:21:00;;;;;;;13.15;9.27;;;1.10;99.90;;;;;;5024285;28;20124;-73
2022/03/08 09:23:32;;;;;;;13.00;8.25;;;1.10;99.90;;;;;;5051520;28;20045;-72
2022/03/08 09:26:04;;;;;;;18.52;10.30;;;1.20;99.90;;;;;;5052257;28;20041;-73
2022/03/08 09:28:36;;;;;;;15.38;9.30;;;1.30;99.90;;;;;;5052349;28;20047;-72
2022/03/08 09:31:08;;;;;;;13.05;8.82;;;1.40;99.90;;;;;;5020973;28;20537;-72
2022/03/08 09:33:41;;;;;;;13.88;8.65;;;1.50;99.90;;;;;;5035771;28;20041;-72
2022/03/08 09:36:13;;;;;;;14.27;9.00;;;1.60;99.90;;;;;;5044753;28;20029;-72
2022/03/08 09:38:40;;;;;;;11.70;8.35;;;1.70;99.90;;;;;;5026363;28;20477;-72
2022/03/08 09:41:13;;;;;;;14.00;9.20;;;1.80;99.90;;;;;;4999026;28;20140;-72
2022/03/08 09:43:45;;;;;;;15.40;8.60;;;2.00;99.30;;;;;;5013182;28;20128;-72
2022/03/08 09:46:18;;;;;;;12.20;8.02;;;2.10;98.10;;;;;;5034068;28;20276;-72
2022/03/08 09:48:50;;;;;;;12.50;8.82;;;2.30;96.70;;;;;;5034949;28;20139;-72
2022/03/08 09:51:22;;;;;;;12.40;8.10;;;2.40;95.60;;;;;;5052544;28;20041;-72
2022/03/08 09:53:54;;;;;;;15.48;8.15;;;2.50;95.60;;;;;;5052721;28;20103;-72
2022/03/08 09:56:21;;;;;;;12.82;8.40;;;2.50;95.10;;;;;;5034234;28;20518;-72
2022/03/08 09:58:53;;;;;;;12.95;9.32;;;2.60;95.00;;;;;;5016932;28;20124;-72
2022/03/08 10:01:25;;;;;;;11.73;7.70;;;2.70;94.70;;;;;;5055577;28;20037;-72
2022/03/08 10:03:51;;;;;;;14.70;8.45;;;2.80;94.10;;;;;;5050059;28;20044;-72
2022/03/08 10:06:19;;;;;;;13.93;8.73;;;2.90;93.50;;;;;;5050473;28;20136;-72
2022/03/08 10:09:13;;;;;;;17.42;8.25;;;3.00;93.40;;;;;;5078612;28;20055;-73
2022/03/08 10:11:41;;;;;;;11.80;8.15;;;3.00;93.20;;;;;;5034180;28;20125;-72
2022/03/08 10:14:14;;;;;;;14.85;9.55;;;3.10;92.90;;;;;;5056413;28;20049;-72
2022/03/08 10:16:49;;;;;;;14.93;8.63;;;3.20;93.00;;;;;;5034646;28;20051;-72
2022/03/08 10:19:21;;;;;;;15.60;9.93;;;3.30;92.70;;;;;;5022481;28;20049;-73
2022/03/08 10:21:54;;;;;;;12.40;8.60;;;3.40;92.20;;;;;;5034521;28;20047;-72
2022/03/08 10:24:32;;;;;;;12.63;8.25;;;3.50;92.80;;;;;;5050151;28;20133;-72
2022/03/08 10:27:01;;;;;;;13.90;8.93;;;3.60;91.90;;;;;;5048623;28;20144;-72
2022/03/08 10:29:29;;;;;;;15.07;8.27;;;3.70;92.10;;;;;;5029992;28;20076;-72
2022/03/08 10:32:16;;;;;;;13.88;7.40;;;3.90;91.50;;;;;;5047104;28;20044;-72
2022/03/08 10:34:54;;;;;;;9.35;6.68;;;4.00;90.20;;;;;;5061063;28;20049;-72
2022/03/08 10:37:33;;;;;;;14.18;6.82;;;4.10;90.60;;;;;;5056394;28;20407;-72
2022/03/08 10:40:09;;;;;;;11.85;7.47;;;4.20;89.10;;;;;;5049288;28;20044;-72
2022/03/08 10:42:39;;;;;;;10.00;7.05;;;4.30;86.50;;;;;;5051781;28;20064;-73
2022/03/08 10:45:16;;;;;;;10.88;7.00;;;4.30;87.00;;;;;;5044033;28;20045;-72
2022/03/08 10:47:53;;;;;;;10.30;7.32;;;4.40;85.60;;;;;;5050895;28;20060;-72
2022/03/08 10:50:31;;;;;;;12.15;8.75;;;4.50;87.10;;;;;;5029857;28;20124;-72
2022/03/08 10:53:05;;;;;;;10.13;7.05;;;4.50;83.70;;;;;;5048124;28;20033;-72
2022/03/08 10:55:43;;;;;;;13.45;6.80;;;4.70;83.50;;;;;;5066390;28;20127;-72
2022/03/08 10:58:17;;;;;;;11.32;6.50;;;4.70;82.50;;;;;;5032669;28;20139;-72
2022/03/08 11:00:53;;;;;;;10.00;6.78;;;4.80;81.50;;;;;;5036263;28;20044;-73
2022/03/08 11:03:26;;;;;;;9.75;6.80;;;4.90;81.10;;;;;;5030088;28;20041;-73
2022/03/08 11:05:55;;;;;;;11.48;7.20;;;4.90;81.10;;;;;;5049187;28;20444;-73
2022/03/08 11:08:28;;;;;;;11.57;6.43;;;5.00;81.60;;;;;;5064089;28;20041;-72
2022/03/08 11:11:00;;;;;;;10.20;7.03;;;5.10;82.00;;;;;;5033992;28;20758;-72
2022/03/08 11:13:32;;;;;;;8.25;6.20;;;5.20;79.40;;;;;;5015751;28;20049;-72
2022/03/08 11:16:05;;;;;;;9.00;6.40;;;5.30;79.70;;;;;;5032848;28;20037;-72
2022/03/08 11:18:37;;;;;;;8.65;6.22;;;5.40;77.20;;;;;;5032864;28;20216;-72
2022/03/08 11:21:08;;;;;;;12.02;6.40;;;5.50;75.80;;;;;;5021290;28;20056;-72
2022/03/08 11:23:36;;;;;;;7.60;5.63;;;5.50;74.90;;;;;;5049977;28;20136;-72
2022/03/08 11:26:11;;;;;;;7.35;5.43;;;5.50;74.00;;;;;;5049440;28;20040;-72
2022/03/08 11:28:45;;;;;;;8.57;5.57;;;5.60;74.60;;;;;;5049299;28;20033;-73
2022/03/08 11:31:18;;;;;;;;;;;5.70;73.80;;;;;;5049152;28;20049;-72
2022/03/08 11:34:12;;;;;;;9.82;5.45;;;5.70;72.30;;;;;;5036229;28;19921;-72
2022/03/08 11:37:16;;;;;;;7.25;4.93;;;5.80;71.70;;;;;;5042823;28;20040;-73
2022/03/08 11:39:43;;;;;;;6.90;5.00;;;5.90;70.10;;;;;;5017291;28;20049;-73
2022/03/08 11:42:18;;;;;;;8.82;5.40;;;5.90;70.70;;;;;;5034212;28;20131;-72
2022/03/08 11:44:57;;;;;;;9.73;5.55;;;6.00;69.60;;;;;;5022940;28;20587;-72
2022/03/08 11:47:41;;;;;;;8.07;4.90;;;6.10;70.10;;;;;;5039572;28;20127;-72
2022/03/08 11:50:27;;;;;;;7.47;5.40;;;6.10;69.70;;;;;;5045363;28;20072;-73
2022/03/08 11:53:08;;;;;;;7.75;4.97;;;6.20;69.70;;;;;;5030351;28;20460;-73
2022/03/08 11:55:44;;;;;;;6.20;4.85;;;6.20;66.90;;;;;;5049700;28;20037;-73
2022/03/08 11:58:16;;;;;;;8.63;5.53;;;6.20;67.30;;;;;;5049574;28;20116;-73
2022/03/08 12:00:47;;;;;;;9.57;5.50;;;6.30;68.30;;;;;;5038176;28;20068;-72
2022/03/08 12:03:22;;;;;;;7.72;5.90;;;6.40;69.00;;;;;;5035583;28;20112;-73
2022/03/08 12:06:06;;;;;;;9.98;5.32;;;6.60;67.40;;;;;;5053168;28;20045;-73
2022/03/08 12:08:39;;;;;;;9.48;5.88;;;6.70;65.20;;;;;;5036611;28;20127;-73
2022/03/08 12:11:13;;;;;;;10.43;7.50;;;6.80;66.30;;;;;;5040137;28;20131;-72
2022/03/08 12:13:47;;;;;;;9.50;6.68;;;6.90;65.20;;;;;;5053307;28;20399;-73
2022/03/08 12:16:25;;;;;;;10.07;6.03;;;6.90;64.30;;;;;;5036016;28;20069;-73
2022/03/08 12:18:54;;;;;;;9.80;5.28;;;7.10;65.00;;;;;;5036483;28;20136;-73
2022/03/08 12:21:27;;;;;;;7.70;4.78;;;7.20;62.90;;;;;;5031492;28;20457;-73
2022/03/08 12:24:08;;;;;;;7.78;5.55;;;7.10;63.30;;;;;;5064383;28;20459;-72
2022/03/08 12:26:48;;;;;;;6.70;4.55;;;7.20;62.20;;;;;;5046654;28;20116;-72
2022/03/08 12:29:53;;;;;;;10.40;5.60;;;7.20;60.90;;;;;;5024553;28;20056;-72
2022/03/08 12:32:34;;;;;;;6.90;4.82;;;7.20;62.80;;;;;;5022860;28;20033;-72
2022/03/08 12:35:08;;;;;;;7.45;5.15;;;7.30;61.30;;;;;;5053518;28;20040;-72
2022/03/08 12:37:43;;;;;;;7.80;4.38;;;7.30;61.90;;;;;;5035385;28;20033;-72
2022/03/08 12:40:17;;;;;;;5.18;4.50;;;7.30;60.90;;;;;;5053228;28;20123;-72
2022/03/08 12:42:58;;;;;;;5.55;3.97;;;7.40;59.50;;;;;;5034512;28;20037;-72
2022/03/08 12:45:29;;;;;;;7.85;4.82;;;7.40;59.60;;;;;;5020462;28;20135;-72
2022/03/08 12:48:11;;;;;;;6.55;4.43;;;7.50;58.60;;;;;;5024292;28;20131;-72
2022/03/08 12:50:48;;;;;;;5.43;4.53;;;7.50;59.30;;;;;;5035499;28;20045;-73
2022/03/08 12:53:27;;;;;;;6.93;4.23;;;7.50;58.30;;;;;;5016906;28;20412;-72
2022/03/08 12:56:03;;;;;;;5.10;3.60;;;7.60;56.70;;;;;;5017838;28;20147;-72